CW9533 Torre Faro Messina IT current weather conditions

sailwx.info

Wind from 360 at 8 knots gusting 13

Air temperature 16.1° C
Dewpoint 8.3° C

Last reported at 2018-Feb-23 04:08 UTC.
Time now 2018-Feb-23 04:57 UTC

Location: N 38°16' E 015°39'.
View on Google Maps.

See reports from other nearby stations

  
Tides and Currents Weather Stations Pressure Air Temp Water Temp Dewpoint Dewpoint Depression Visibility Wind Speed Wind Dir Waves Ship Positions
date/time (UTC)wind fromknots sea level pressurealtimeterstation pressurevisibilityair tempwater tempwave heightnotes
2018-Feb-23 04:08 360 8 gusting 13 16.1
2018-Feb-23 03:52 126 6 gusting 13 16.7
2018-Feb-23 03:37 132 6 gusting 17
2018-Feb-23 03:22 205 6 gusting 13
2018-Feb-23 03:07 142 6 gusting 16 16.7
2018-Feb-23 02:52 128 6 gusting 13
2018-Feb-23 02:37 360 6 gusting 14 16.1
2018-Feb-23 02:22 084 6 gusting 13 15.6
2018-Feb-23 02:07 132 3 gusting 13
2018-Feb-23 01:52 136 7 gusting 16 15.6
2018-Feb-23 01:37 360 8 gusting 15 15.6
2018-Feb-23 01:22 142 5 gusting 8 15.6
2018-Feb-23 01:07 360 0 gusting 6 13.9
2018-Feb-23 00:52 138 13.9
2018-Feb-23 00:37 103 13.3
2018-Feb-23 00:21 102 13.3
2018-Feb-23 00:06 102 13.3
2018-Feb-22 23:51 102 13.3
2018-Feb-22 23:36 108 13.3
2018-Feb-22 23:21 103 1 gusting 6 13.3
2018-Feb-22 23:06 135 2 gusting 6 13.3
2018-Feb-22 22:51 140 1 gusting 12 15.0
2018-Feb-22 22:36 233 5 gusting 13 15.0
2018-Feb-22 22:21 140 6 gusting 14 15.0
2018-Feb-22 22:06 360 6 gusting 13 15.0
2018-Feb-22 21:51 360 6 gusting 12 14.4
2018-Feb-22 21:36 360 6 gusting 11 13.9
2018-Feb-22 21:21 211 3 gusting 8 13.9
2018-Feb-22 21:06 226 3 gusting 13 13.3
2018-Feb-22 20:50 140 4 gusting 11 13.3
2018-Feb-22 20:35 126 3 gusting 9 13.3
2018-Feb-22 20:20 223 1 gusting 13 13.9
2018-Feb-22 20:05 360 4 gusting 15 13.9
2018-Feb-22 19:50 213 3 gusting 10 13.3
2018-Feb-22 19:35 236 3 gusting 10 12.8
2018-Feb-22 19:20 197 1 gusting 14 13.3
2018-Feb-22 19:05 226 5 gusting 12 12.8
2018-Feb-22 18:50 226 5 gusting 13 13.3
2018-Feb-22 18:35 360 4 gusting 13 13.3
2018-Feb-22 18:20 237 3 gusting 11 12.8
2018-Feb-22 18:05 221 2 gusting 11 12.8
2018-Feb-22 17:50 360 2 gusting 11 12.8
2018-Feb-22 17:34 233 3 gusting 13 12.8
2018-Feb-22 17:19 259 3 gusting 10 12.8
2018-Feb-22 17:04 211 4 gusting 10 12.8
2018-Feb-22 16:49 209 1 gusting 7 12.8
2018-Feb-22 16:34 250 13.3
2018-Feb-22 16:19 258 0 gusting 6 13.3
2018-Feb-22 16:04 121 3 gusting 13
2018-Feb-22 15:49 117 8 gusting 15 12.8
2018-Feb-22 15:34 219 5 gusting 13 12.8
2018-Feb-22 15:19 226 6 gusting 16 12.8
2018-Feb-22 15:04 192 6 gusting 17 12.8
2018-Feb-22 14:49 360 6 gusting 17
2018-Feb-22 14:34 260 1 gusting 13 15.0
2018-Feb-22 14:18 138 6 gusting 14 15.0
2018-Feb-22 14:03 138 6 gusting 13
2018-Feb-22 13:48 173 6 gusting 14 15.0
2018-Feb-22 13:33 360 9 gusting 15 14.4
2018-Feb-22 13:18 214 10 gusting 19 14.4
2018-Feb-22 13:03 202 9 gusting 19 13.9
2018-Feb-22 12:48 253 5 gusting 16 13.9
2018-Feb-22 12:33 360 3 gusting 14
2018-Feb-22 12:18 360 5 gusting 20 13.9
2018-Feb-22 12:03 201 9 gusting 21 13.9
2018-Feb-22 11:48 123 9 gusting 20 13.9
2018-Feb-22 11:33 190 16 gusting 28 13.3
2018-Feb-22 11:18 192 13 gusting 22 13.9
2018-Feb-22 11:03 360 13 gusting 26 13.9
2018-Feb-22 10:47 141 13 gusting 26 13.9
2018-Feb-22 10:32 213 13 gusting 26 13.3
2018-Feb-22 10:17 213 12 gusting 26 13.9
2018-Feb-22 10:02 128 14 gusting 26 13.9
2018-Feb-22 09:47 205 12 gusting 26 13.9
2018-Feb-22 09:32 147 11 gusting 21 13.3
2018-Feb-22 09:17 144 8 gusting 19 13.3
2018-Feb-22 09:02 223 6 gusting 22
2018-Feb-22 08:47 246 6 gusting 22 13.3
2018-Feb-22 08:32 197 6 gusting 17 13.9
2018-Feb-22 08:17 219 5 gusting 17
2018-Feb-22 08:02 360 8 gusting 18 13.9
2018-Feb-22 07:47 360 5 gusting 20 13.3
2018-Feb-22 07:31 223 8 gusting 18
2018-Feb-22 07:16 164 11 gusting 19 13.3
2018-Feb-22 07:01 232 7 gusting 19 12.8
2018-Feb-22 06:46 138 6 gusting 17 12.2
2018-Feb-22 06:31 111 6 gusting 12 11.1
2018-Feb-22 06:16 360 6 gusting 11 11.1
2018-Feb-22 06:02 191 5 gusting 11 10.6
2018-Feb-22 05:46 137 4 gusting 8 10.6
2018-Feb-22 05:31 360 3 gusting 6
2018-Feb-22 05:16 222 3 gusting 6 10.6
2018-Feb-22 05:01 212 2 gusting 5 10.6
2018-Feb-22 04:46 360 1 gusting 5
2018-Feb-22 04:31 140 9.4
2018-Feb-22 04:15 140 9.4
2018-Feb-22 04:00 140
2018-Feb-22 03:45 140 9.4
2018-Feb-22 03:30 140 9.4
2018-Feb-22 03:15 140
2018-Feb-22 03:00 140 10.0
2018-Feb-22 02:45 140 10.0
2018-Feb-22 02:30 140 10.6
2018-Feb-22 02:15 140 10.6
2018-Feb-22 02:00 140 11.1
2018-Feb-22 01:45 140 11.1
2018-Feb-22 01:30 140 11.1
2018-Feb-22 01:15 140
2018-Feb-22 01:00 140 11.1
2018-Feb-22 00:45 140 11.1
2018-Feb-22 00:29 140
2018-Feb-22 00:14 140 10.0
2018-Feb-21 23:59 140 10.6
2018-Feb-21 23:44 140
2018-Feb-21 23:29 140 10.0
2018-Feb-21 23:14 141 10.0
2018-Feb-21 23:00 141 10.6
2018-Feb-21 22:44 141 10.0
2018-Feb-21 22:29 141 10.6
2018-Feb-21 22:14 141 10.6
2018-Feb-21 21:59 141 11.1
2018-Feb-21 21:44 263 11.1
2018-Feb-21 21:29 263 11.1
2018-Feb-21 21:14 263
2018-Feb-21 20:59 263 11.1
2018-Feb-21 20:44 263 11.1
2018-Feb-21 20:29 268 11.1
2018-Feb-21 20:14 234 0 gusting 5 11.1
2018-Feb-21 19:59 279 1 gusting 7 11.1
2018-Feb-21 19:44 223 0 gusting 6 11.1
2018-Feb-21 19:14 281 1 gusting 8 11.7
2018-Feb-21 18:59 260 11.1
2018-Feb-21 18:44 254 11.1
2018-Feb-21 18:29 263 11.1
2018-Feb-21 18:14 271 0 gusting 6 11.1
2018-Feb-21 17:59 310 0 gusting 8 11.7
2018-Feb-21 17:44 296 1 gusting 9
2018-Feb-21 17:29 284 11.7
2018-Feb-21 17:14 294
2018-Feb-21 16:59 330 0 gusting 8 11.7
2018-Feb-21 16:44 315 3 gusting 11 11.7
2018-Feb-21 16:29 340 5 gusting 13 11.7
2018-Feb-21 16:14 293 4 gusting 13 11.7
2018-Feb-21 15:59 294 3 gusting 10
2018-Feb-21 15:44 360 12.8
2018-Feb-21 15:28 306 2 gusting 7 12.8
2018-Feb-21 15:13 282
2018-Feb-21 14:43 235 3 gusting 12 12.8
2018-Feb-21 14:28 326 2 gusting 9 13.3
2018-Feb-21 14:13 266 2 gusting 13 12.8
2018-Feb-21 13:58 299 8 gusting 15 12.2
2018-Feb-21 13:43 327 2 gusting 13 12.8
2018-Feb-21 13:28 302 6 gusting 14 12.2
2018-Feb-21 13:13 313 4 gusting 13 13.3
2018-Feb-21 12:58 313 4 gusting 18 12.8
2018-Feb-21 12:43 306 7 gusting 15 12.8
2018-Feb-21 12:28 323 7 gusting 15 12.2
2018-Feb-21 12:12 355 8 gusting 16 12.2
2018-Feb-21 11:57 292 7 gusting 14 12.2
2018-Feb-21 11:42 005 4 gusting 13 12.2
2018-Feb-21 11:27 296 6 gusting 13 11.7
2018-Feb-21 11:12 329 6 gusting 13 11.1
2018-Feb-21 10:57 291 6 gusting 13 11.1
2018-Feb-21 10:42 266 2 gusting 8 10.6
2018-Feb-21 10:27 306 2 gusting 9 10.6
2018-Feb-21 10:12 280 2 gusting 7 10.6
2018-Feb-21 09:57 263 2 gusting 6 10.6
2018-Feb-21 09:42 262 1 gusting 7 11.1
2018-Feb-21 09:27 330 2 gusting 7 11.1
2018-Feb-21 09:12 280 2 gusting 10 11.7
2018-Feb-21 08:57 355 11.7
2018-Feb-21 08:41 270 2 gusting 6 11.7
2018-Feb-21 08:26 261 11.7
2018-Feb-21 08:11 252 2 gusting 7 11.1
2018-Feb-21 07:56 360 3 gusting 9 11.1
2018-Feb-21 07:41 261 2 gusting 7 11.1
2018-Feb-21 07:26 257 0 gusting 7 10.6
2018-Feb-21 07:11 244 1 gusting 7 10.6
2018-Feb-21 06:56 215 4 gusting 9 11.1
2018-Feb-21 06:41 194 4 gusting 9 11.1
2018-Feb-21 06:26 360 4 gusting 8 10.6
2018-Feb-21 06:11 203 2 gusting 7 10.6
2018-Feb-21 05:56 215 5 gusting 9 10.6
2018-Feb-21 05:41 136 6 gusting 9 11.1
2018-Feb-21 05:26 360 4 gusting 10 11.1
2018-Feb-21 05:10 360 3 gusting 11 11.1
2018-Feb-21 04:55 360 5 gusting 11 10.6
2018-Feb-21 04:40 246 6 gusting 11 10.6
2018-Feb-21 04:25 174 6 gusting 13 10.6
2018-Feb-21 04:10 219 8 gusting 15 10.6